Aviation Digital Data Service (ADDS)

Output produced by METARs form (1158 UTC 22 March 2019)
found at http://www.aviationweather.gov/metar/data/
 
METAR text: RJCH 221100Z 32011KT 9999 FEW015 BKN050 00/M09 Q1009
Conditions at: RJCH (HAKODATE AIRPORT, JP) observed 1100 UTC 22 March 2019
Temperature: 0.0°C (32°F)
Dewpoint: -9.0°C (16°F) [RH = 51%]
Pressure (altimeter): 29.79 inches Hg (1009.0 mb)
Winds: from the NW (320 degrees) at 13 MPH (11 knots; 5.7 m/s)
Visibility: 6 or more miles (10+ km)
Ceiling: 5000 feet AGL
Clouds: few clouds at 1500 feet AGL
broken clouds at 5000 feet AGL
Weather: no significant weather observed at this time

METAR text: RJCH 221000Z 33011KT 300V010 9999 FEW015 SCT040 BKN050 00/M09 Q1008
Conditions at: RJCH (HAKODATE AIRPORT, JP) observed 1000 UTC 22 March 2019
Temperature: 0.0°C (32°F)
Dewpoint: -9.0°C (16°F) [RH = 51%]
Pressure (altimeter): 29.76 inches Hg (1008.0 mb)
Winds: from the NNW (330 degrees) at 13 MPH (11 knots; 5.7 m/s)
Visibility: 6 or more miles (10+ km)
Ceiling: 5000 feet AGL
Clouds: few clouds at 1500 feet AGL
scattered clouds at 4000 feet AGL
broken clouds at 5000 feet AGL
Weather: no significant weather observed at this time

METAR text: RJCH 220900Z 32011KT 290V350 9999 -SHSN FEW020 SCT040 BKN045 01/M08 Q1007
Conditions at: RJCH (HAKODATE AIRPORT, JP) observed 0900 UTC 22 March 2019
Temperature: 1.0°C (34°F)
Dewpoint: -8.0°C (18°F) [RH = 51%]
Pressure (altimeter): 29.73 inches Hg (1007.0 mb)
Winds: from the NW (320 degrees) at 13 MPH (11 knots; 5.7 m/s)
Visibility: 6 or more miles (10+ km)
Ceiling: 4500 feet AGL
Clouds: few clouds at 2000 feet AGL
scattered clouds at 4000 feet AGL
broken clouds at 4500 feet AGL
Weather: -SHSN  (light snow showers)

METAR text: RJCH 220800Z 32012KT 9999 FEW020 BKN040 01/M08 Q1006
Conditions at: RJCH (HAKODATE AIRPORT, JP) observed 0800 UTC 22 March 2019
Temperature: 1.0°C (34°F)
Dewpoint: -8.0°C (18°F) [RH = 51%]
Pressure (altimeter): 29.70 inches Hg (1006.0 mb)
Winds: from the NW (320 degrees) at 14 MPH (12 knots; 6.2 m/s)
Visibility: 6 or more miles (10+ km)
Ceiling: 4000 feet AGL
Clouds: few clouds at 2000 feet AGL
broken clouds at 4000 feet AGL
Weather: no significant weather observed at this time

METAR text: RJCH 220700Z 33011KT 300V360 9999 -SHSN FEW018 BKN040 02/M06 Q1005
Conditions at: RJCH (HAKODATE AIRPORT, JP) observed 0700 UTC 22 March 2019
Temperature: 2.0°C (36°F)
Dewpoint: -6.0°C (21°F) [RH = 55%]
Pressure (altimeter): 29.68 inches Hg (1005.0 mb)
Winds: from the NNW (330 degrees) at 13 MPH (11 knots; 5.7 m/s)
Visibility: 6 or more miles (10+ km)
Ceiling: 4000 feet AGL
Clouds: few clouds at 1800 feet AGL
broken clouds at 4000 feet AGL
Weather: -SHSN  (light snow showers)

METAR text: RJCH 220600Z 33011KT 300V010 9999 VCSH FEW008 SCT030 BKN040 03/M05 Q1004
Conditions at: RJCH (HAKODATE AIRPORT, JP) observed 0600 UTC 22 March 2019
Temperature: 3.0°C (37°F)
Dewpoint: -5.0°C (23°F) [RH = 56%]
Pressure (altimeter): 29.65 inches Hg (1004.0 mb)
Winds: from the NNW (330 degrees) at 13 MPH (11 knots; 5.7 m/s)
Visibility: 6 or more miles (10+ km)
Ceiling: 4000 feet AGL
Clouds: few clouds at 800 feet AGL
scattered clouds at 3000 feet AGL
broken clouds at 4000 feet AGL
Weather: VCSH  (showers in vicinity)

METAR text: RJCH 220508Z 27023G33KT 9999 FEW025 BKN040 04/M05 Q1003 RMK 1CU025 5CU040 A2964
Conditions at: RJCH (HAKODATE AIRPORT, JP) observed 0508 UTC 22 March 2019
Temperature: 4.0°C (39°F)
Dewpoint: -5.0°C (23°F) [RH = 52%]
Pressure (altimeter): 29.62 inches Hg (1003.0 mb)
Winds: from the W (270 degrees) at 26 MPH (23 knots; 11.8 m/s)
gusting to 38 MPH (33 knots; 17.0 m/s)
Visibility: 6 or more miles (10+ km)
Ceiling: 4000 feet AGL
Clouds: few clouds at 2500 feet AGL
broken clouds at 4000 feet AGL
Weather: no significant weather observed at this time

METAR text: RJCH 220500Z 28022KT 9999 FEW018 BKN040 05/M06 Q1003
Conditions at: RJCH (HAKODATE AIRPORT, JP) observed 0500 UTC 22 March 2019
Temperature: 5.0°C (41°F)
Dewpoint: -6.0°C (21°F) [RH = 45%]
Pressure (altimeter): 29.62 inches Hg (1003.0 mb)
Winds: from the W (280 degrees) at 25 MPH (22 knots; 11.3 m/s)
Visibility: 6 or more miles (10+ km)
Ceiling: 4000 feet AGL
Clouds: few clouds at 1800 feet AGL
broken clouds at 4000 feet AGL
Weather: no significant weather observed at this time

METAR text: RJCH 220422Z 27024G34KT 9999 FEW015 BKN035 05/M05 Q1003 RMK 1ST015 6CU035 A2963
Conditions at: RJCH (HAKODATE AIRPORT, JP) observed 0422 UTC 22 March 2019
Temperature: 5.0°C (41°F)
Dewpoint: -5.0°C (23°F) [RH = 48%]
Pressure (altimeter): 29.62 inches Hg (1003.0 mb)
Winds: from the W (270 degrees) at 28 MPH (24 knots; 12.3 m/s)
gusting to 39 MPH (34 knots; 17.5 m/s)
Visibility: 6 or more miles (10+ km)
Ceiling: 3500 feet AGL
Clouds: few clouds at 1500 feet AGL
broken clouds at 3500 feet AGL
Weather: no significant weather observed at this time

METAR text: RJCH 220400Z 27026KT 9999 FEW020 BKN040 05/M05 Q1003
Conditions at: RJCH (HAKODATE AIRPORT, JP) observed 0400 UTC 22 March 2019
Temperature: 5.0°C (41°F)
Dewpoint: -5.0°C (23°F) [RH = 48%]
Pressure (altimeter): 29.62 inches Hg (1003.0 mb)
Winds: from the W (270 degrees) at 30 MPH (26 knots; 13.4 m/s)
Visibility: 6 or more miles (10+ km)
Ceiling: 4000 feet AGL
Clouds: few clouds at 2000 feet AGL
broken clouds at 4000 feet AGL
Weather: no significant weather observed at this time

METAR text: RJCH 220300Z 27022G32KT 9999 FEW020 SCT040 05/M04 Q1002
Conditions at: RJCH (HAKODATE AIRPORT, JP) observed 0300 UTC 22 March 2019
Temperature: 5.0°C (41°F)
Dewpoint: -4.0°C (25°F) [RH = 52%]
Pressure (altimeter): 29.59 inches Hg (1002.0 mb)
Winds: from the W (270 degrees) at 25 MPH (22 knots; 11.3 m/s)
gusting to 37 MPH (32 knots; 16.5 m/s)
Visibility: 6 or more miles (10+ km)
Ceiling: at least 12,000 feet AGL
Clouds: few clouds at 2000 feet AGL
scattered clouds at 4000 feet AGL
Weather: no significant weather observed at this time

METAR text: RJCH 220200Z 28022G32KT 9999 FEW010 SCT035 05/M03 Q1002
Conditions at: RJCH (HAKODATE AIRPORT, JP) observed 0200 UTC 22 March 2019
Temperature: 5.0°C (41°F)
Dewpoint: -3.0°C (27°F) [RH = 56%]
Pressure (altimeter): 29.59 inches Hg (1002.0 mb)
Winds: from the W (280 degrees) at 25 MPH (22 knots; 11.3 m/s)
gusting to 37 MPH (32 knots; 16.5 m/s)
Visibility: 6 or more miles (10+ km)
Ceiling: at least 12,000 feet AGL
Clouds: few clouds at 1000 feet AGL
scattered clouds at 3500 feet AGL
Weather: no significant weather observed at this time

METAR text: RJCH 220100Z 28020G31KT 9999 FEW010 SCT030 05/M02 Q1001
Conditions at: RJCH (HAKODATE AIRPORT, JP) observed 0100 UTC 22 March 2019
Temperature: 5.0°C (41°F)
Dewpoint: -2.0°C (28°F) [RH = 60%]
Pressure (altimeter): 29.56 inches Hg (1001.0 mb)
Winds: from the W (280 degrees) at 23 MPH (20 knots; 10.3 m/s)
gusting to 36 MPH (31 knots; 15.9 m/s)
Visibility: 6 or more miles (10+ km)
Ceiling: at least 12,000 feet AGL
Clouds: few clouds at 1000 feet AGL
scattered clouds at 3000 feet AGL
Weather: no significant weather observed at this time

METAR text: RJCH 220014Z 28023G33KT 9999 FEW005 SCT015 BKN025 04/M03 Q1001 RMK 1ST005 4ST015 5CU025 A2956
Conditions at: RJCH (HAKODATE AIRPORT, JP) observed 0014 UTC 22 March 2019
Temperature: 4.0°C (39°F)
Dewpoint: -3.0°C (27°F) [RH = 60%]
Pressure (altimeter): 29.56 inches Hg (1001.0 mb)
Winds: from the W (280 degrees) at 26 MPH (23 knots; 11.8 m/s)
gusting to 38 MPH (33 knots; 17.0 m/s)
Visibility: 6 or more miles (10+ km)
Ceiling: 2500 feet AGL
Clouds: few clouds at 500 feet AGL
scattered clouds at 1500 feet AGL
broken clouds at 2500 feet AGL
Weather: no significant weather observed at this time

METAR text: RJCH 220000Z 28024KT 9999 VCSH FEW003 SCT012 BKN025 04/M03 Q1000
Conditions at: RJCH (HAKODATE AIRPORT, JP) observed 0000 UTC 22 March 2019
Temperature: 4.0°C (39°F)
Dewpoint: -3.0°C (27°F) [RH = 60%]
Pressure (altimeter): 29.53 inches Hg (1000.0 mb)
Winds: from the W (280 degrees) at 28 MPH (24 knots; 12.3 m/s)
Visibility: 6 or more miles (10+ km)
Ceiling: 2500 feet AGL
Clouds: few clouds at 300 feet AGL
scattered clouds at 1200 feet AGL
broken clouds at 2500 feet AGL
Weather: VCSH  (showers in vicinity)

METAR text: RJCH 212314Z 29022G32KT 9999 FEW008 SCT020 04/M01 Q0999 RMK 1ST008 4CU020 A2952
Conditions at: RJCH (HAKODATE AIRPORT, JP) observed 2314 UTC 21 March 2019
Temperature: 4.0°C (39°F)
Dewpoint: -1.0°C (30°F) [RH = 70%]
Pressure (altimeter): 29.50 inches Hg (999.0 mb)
Winds: from the WNW (290 degrees) at 25 MPH (22 knots; 11.3 m/s)
gusting to 37 MPH (32 knots; 16.5 m/s)
Visibility: 6 or more miles (10+ km)
Ceiling: at least 12,000 feet AGL
Clouds: few clouds at 800 feet AGL
scattered clouds at 2000 feet AGL
Weather: no significant weather observed at this time

METAR text: RJCH 212300Z 28023KT 9999 FEW008 SCT020 04/M01 Q0999
Conditions at: RJCH (HAKODATE AIRPORT, JP) observed 2300 UTC 21 March 2019
Temperature: 4.0°C (39°F)
Dewpoint: -1.0°C (30°F) [RH = 70%]
Pressure (altimeter): 29.50 inches Hg (999.0 mb)
Winds: from the W (280 degrees) at 26 MPH (23 knots; 11.8 m/s)
Visibility: 6 or more miles (10+ km)
Ceiling: at least 12,000 feet AGL
Clouds: few clouds at 800 feet AGL
scattered clouds at 2000 feet AGL
Weather: no significant weather observed at this time

METAR text: RJCH 212207Z 30022G33KT 9999 FEW004 SCT012 BKN020 04/M00 Q0998 RMK 1ST004 4ST012 5CU020 A2949
Conditions at: RJCH (HAKODATE AIRPORT, JP) observed 2207 UTC 21 March 2019
Temperature: 4.0°C (39°F)
Dewpoint: 0.0°C (32°F) [RH = 75%]
Pressure (altimeter): 29.47 inches Hg (998.0 mb)
Winds: from the WNW (300 degrees) at 25 MPH (22 knots; 11.3 m/s)
gusting to 38 MPH (33 knots; 17.0 m/s)
Visibility: 6 or more miles (10+ km)
Ceiling: 2000 feet AGL
Clouds: few clouds at 400 feet AGL
scattered clouds at 1200 feet AGL
broken clouds at 2000 feet AGL
Weather: no significant weather observed at this time

METAR text: RJCH 212200Z 30022KT 9999 FEW004 SCT012 BKN020 04/M01 Q0998
Conditions at: RJCH (HAKODATE AIRPORT, JP) observed 2200 UTC 21 March 2019
Temperature: 4.0°C (39°F)
Dewpoint: -1.0°C (30°F) [RH = 70%]
Pressure (altimeter): 29.47 inches Hg (998.0 mb)
Winds: from the WNW (300 degrees) at 25 MPH (22 knots; 11.3 m/s)
Visibility: 6 or more miles (10+ km)
Ceiling: 2000 feet AGL
Clouds: few clouds at 400 feet AGL
scattered clouds at 1200 feet AGL
broken clouds at 2000 feet AGL
Weather: no significant weather observed at this time

METAR text: RJCH 212116Z 30022G32KT 9999 FEW005 SCT012 BKN025 04/M00 Q0997 RMK 1ST005 4ST012 5CU025 A2945
Conditions at: RJCH (HAKODATE AIRPORT, JP) observed 2116 UTC 21 March 2019
Temperature: 4.0°C (39°F)
Dewpoint: 0.0°C (32°F) [RH = 75%]
Pressure (altimeter): 29.44 inches Hg (997.0 mb)
Winds: from the WNW (300 degrees) at 25 MPH (22 knots; 11.3 m/s)
gusting to 37 MPH (32 knots; 16.5 m/s)
Visibility: 6 or more miles (10+ km)
Ceiling: 2500 feet AGL
Clouds: few clouds at 500 feet AGL
scattered clouds at 1200 feet AGL
broken clouds at 2500 feet AGL
Weather: no significant weather observed at this time

METAR text: RJCH 212110Z 30022KT 9999 FEW005 SCT012 BKN025 04/00 Q0997 RMK 1ST005 4ST012 5CU025 A2944
Conditions at: RJCH (HAKODATE AIRPORT, JP) observed 2110 UTC 21 March 2019
Temperature: 4.0°C (39°F)
Dewpoint: 0.0°C (32°F) [RH = 75%]
Pressure (altimeter): 29.44 inches Hg (997.0 mb)
Winds: from the WNW (300 degrees) at 25 MPH (22 knots; 11.3 m/s)
Visibility: 6 or more miles (10+ km)
Ceiling: 2500 feet AGL
Clouds: few clouds at 500 feet AGL
scattered clouds at 1200 feet AGL
broken clouds at 2500 feet AGL
Weather: no significant weather observed at this time

METAR text: RJCH 211127Z 11006KT 060V140 3200 -SHRA BR SCT003 BKN005 07/06 Q0992 RMK 4ST003 7ST005 A2930
Conditions at: RJCH (HAKODATE AIRPORT, JP) observed 1127 UTC 21 March 2019
Temperature: 7.0°C (45°F)
Dewpoint: 6.0°C (43°F) [RH = 93%]
Pressure (altimeter): 29.29 inches Hg (992.0 mb)
Winds: from the ESE (110 degrees) at 7 MPH (6 knots; 3.1 m/s)
Visibility: 1.99 miles (3.20 km)
Ceiling: 500 feet AGL
Clouds: scattered clouds at 300 feet AGL
broken clouds at 500 feet AGL
Weather: -SHRA BR  (light rain showers, mist)

METAR text: RJCH 211119Z 08003KT 060V130 3100 -SHRA BR BKN003 BKN005 06/06 Q0992 RMK 5ST003 7ST005 A2930
Conditions at: RJCH (HAKODATE AIRPORT, JP) observed 1119 UTC 21 March 2019
Temperature: 6.0°C (43°F)
Dewpoint: 6.0°C (43°F) [RH = 100%]
Pressure (altimeter): 29.29 inches Hg (992.0 mb)
Winds: from the E (80 degrees) at 3 MPH (3 knots; 1.5 m/s)
Visibility: 1.93 miles (3.11 km)
Ceiling: 300 feet AGL
Clouds: broken clouds at 300 feet AGL
broken clouds at 500 feet AGL
Weather: -SHRA BR  (light rain showers, mist)

METAR text: RJCH 211100Z 06004KT 340V140 4500 -SHRA BR FEW003 BKN004 BKN006 05/05 Q0992
Conditions at: RJCH (HAKODATE AIRPORT, JP) observed 1100 UTC 21 March 2019
Temperature: 5.0°C (41°F)
Dewpoint: 5.0°C (41°F) [RH = 100%]
Pressure (altimeter): 29.29 inches Hg (992.0 mb)
Winds: from the ENE (60 degrees) at 5 MPH (4 knots; 2.1 m/s)
Visibility: 2.80 miles (4.51 km)
Ceiling: 400 feet AGL
Clouds: few clouds at 300 feet AGL
broken clouds at 400 feet AGL
broken clouds at 600 feet AGL
Weather: -SHRA BR  (light rain showers, mist)

METAR text: RJCH 211038Z 07006KT 040V140 4000 -SHRA BR FEW003 BKN004 BKN006 05/05 Q0992 RMK 2ST003 5ST004 6ST006 A2930
Conditions at: RJCH (HAKODATE AIRPORT, JP) observed 1038 UTC 21 March 2019
Temperature: 5.0°C (41°F)
Dewpoint: 5.0°C (41°F) [RH = 100%]
Pressure (altimeter): 29.29 inches Hg (992.0 mb)
Winds: from the ENE (70 degrees) at 7 MPH (6 knots; 3.1 m/s)
Visibility: 2.49 miles (4.01 km)
Ceiling: 400 feet AGL
Clouds: few clouds at 300 feet AGL
broken clouds at 400 feet AGL
broken clouds at 600 feet AGL
Weather: -SHRA BR  (light rain showers, mist)

METAR text: RJCH 211018Z 04004KT 010V100 3200 -SHRA BR FEW003 BKN005 BKN007 05/04 Q0993 RMK 1ST003 5ST005 7ST007 A2933
Conditions at: RJCH (HAKODATE AIRPORT, JP) observed 1018 UTC 21 March 2019
Temperature: 5.0°C (41°F)
Dewpoint: 4.0°C (39°F) [RH = 93%]
Pressure (altimeter): 29.32 inches Hg (993.0 mb)
Winds: from the NE (40 degrees) at 5 MPH (4 knots; 2.1 m/s)
Visibility: 1.99 miles (3.20 km)
Ceiling: 500 feet AGL
Clouds: few clouds at 300 feet AGL
broken clouds at 500 feet AGL
broken clouds at 700 feet AGL
Weather: -SHRA BR  (light rain showers, mist)

METAR text: RJCH 211000Z 06003KT 020V090 2800 -SHRA BR FEW003 SCT005 BKN007 05/04 Q0993
Conditions at: RJCH (HAKODATE AIRPORT, JP) observed 1000 UTC 21 March 2019
Temperature: 5.0°C (41°F)
Dewpoint: 4.0°C (39°F) [RH = 93%]
Pressure (altimeter): 29.32 inches Hg (993.0 mb)
Winds: from the ENE (60 degrees) at 3 MPH (3 knots; 1.5 m/s)
Visibility: 1.74 miles (2.80 km)
Ceiling: 700 feet AGL
Clouds: few clouds at 300 feet AGL
scattered clouds at 500 feet AGL
broken clouds at 700 feet AGL
Weather: -SHRA BR  (light rain showers, mist)

METAR text: RJCH 210933Z 07007KT 5000 -SHRA BR FEW003 SCT005 BKN007 05/04 Q0993 RMK 1ST003 4ST005 7ST007 A2934
Conditions at: RJCH (HAKODATE AIRPORT, JP) observed 0933 UTC 21 March 2019
Temperature: 5.0°C (41°F)
Dewpoint: 4.0°C (39°F) [RH = 93%]
Pressure (altimeter): 29.32 inches Hg (993.0 mb)
Winds: from the ENE (70 degrees) at 8 MPH (7 knots; 3.6 m/s)
Visibility: 3 miles ( 5 km)
Ceiling: 700 feet AGL
Clouds: few clouds at 300 feet AGL
scattered clouds at 500 feet AGL
broken clouds at 700 feet AGL
Weather: -SHRA BR  (light rain showers, mist)

METAR text: RJCH 210918Z 07007KT 4900 -SHRA BR FEW004 BKN007 BKN009 04/04 Q0993 RMK 1ST004 6ST007 7ST009 A2935
Conditions at: RJCH (HAKODATE AIRPORT, JP) observed 0918 UTC 21 March 2019
Temperature: 4.0°C (39°F)
Dewpoint: 4.0°C (39°F) [RH = 100%]
Pressure (altimeter): 29.32 inches Hg (993.0 mb)
Winds: from the ENE (70 degrees) at 8 MPH (7 knots; 3.6 m/s)
Visibility: 3 miles ( 5 km)
Ceiling: 700 feet AGL
Clouds: few clouds at 400 feet AGL
broken clouds at 700 feet AGL
broken clouds at 900 feet AGL
Weather: -SHRA BR  (light rain showers, mist)

METAR text: RJCH 210900Z 07008KT 8000 -SHRA FEW004 BKN007 BKN009 04/04 Q0993
Conditions at: RJCH (HAKODATE AIRPORT, JP) observed 0900 UTC 21 March 2019
Temperature: 4.0°C (39°F)
Dewpoint: 4.0°C (39°F) [RH = 100%]
Pressure (altimeter): 29.32 inches Hg (993.0 mb)
Winds: from the ENE (70 degrees) at 9 MPH (8 knots; 4.1 m/s)
Visibility: 5 miles ( 8 km)
Ceiling: 700 feet AGL
Clouds: few clouds at 400 feet AGL
broken clouds at 700 feet AGL
broken clouds at 900 feet AGL
Weather: -SHRA  (light rain showers)

METAR text: RJCH 210848Z 08008KT 8000 -SHRA FEW004 BKN008 BKN010 04/04 Q0994 RMK 1ST004 5ST008 7ST010 A2937
Conditions at: RJCH (HAKODATE AIRPORT, JP) observed 0848 UTC 21 March 2019
Temperature: 4.0°C (39°F)
Dewpoint: 4.0°C (39°F) [RH = 100%]
Pressure (altimeter): 29.35 inches Hg (994.0 mb)
Winds: from the E (80 degrees) at 9 MPH (8 knots; 4.1 m/s)
Visibility: 5 miles ( 8 km)
Ceiling: 800 feet AGL
Clouds: few clouds at 400 feet AGL
broken clouds at 800 feet AGL
broken clouds at 1000 feet AGL
Weather: -SHRA  (light rain showers)

METAR text: RJCH 210836Z 08006KT 6000 -SHRA FEW004 SCT007 BKN010 04/04 Q0994 RMK 1ST004 4ST007 6ST010 A2937 P/FR
Conditions at: RJCH (HAKODATE AIRPORT, JP) observed 0836 UTC 21 March 2019
Temperature: 4.0°C (39°F)
Dewpoint: 4.0°C (39°F) [RH = 100%]
Pressure (altimeter): 29.35 inches Hg (994.0 mb)
Winds: from the E (80 degrees) at 7 MPH (6 knots; 3.1 m/s)
Visibility: 4 miles ( 6 km)
Ceiling: 1000 feet AGL
Clouds: few clouds at 400 feet AGL
scattered clouds at 700 feet AGL
broken clouds at 1000 feet AGL
Weather: -SHRA  (light rain showers)

METAR text: RJCH 210826Z 07006KT 030V100 6000 -SHRA FEW005 BKN007 BKN010 04/04 Q0995 RMK 1ST005 5ST007 6ST010 A2939
Conditions at: RJCH (HAKODATE AIRPORT, JP) observed 0826 UTC 21 March 2019
Temperature: 4.0°C (39°F)
Dewpoint: 4.0°C (39°F) [RH = 100%]
Pressure (altimeter): 29.38 inches Hg (995.0 mb)
Winds: from the ENE (70 degrees) at 7 MPH (6 knots; 3.1 m/s)
Visibility: 4 miles ( 6 km)
Ceiling: 700 feet AGL
Clouds: few clouds at 500 feet AGL
broken clouds at 700 feet AGL
broken clouds at 1000 feet AGL
Weather: -SHRA  (light rain showers)

METAR text: RJCH 210816Z 07007KT 7000 -SHRA FEW005 SCT008 BKN010 04/04 Q0995 RMK 1ST005 4ST008 6ST010 A2939
Conditions at: RJCH (HAKODATE AIRPORT, JP) observed 0816 UTC 21 March 2019
Temperature: 4.0°C (39°F)
Dewpoint: 4.0°C (39°F) [RH = 100%]
Pressure (altimeter): 29.38 inches Hg (995.0 mb)
Winds: from the ENE (70 degrees) at 8 MPH (7 knots; 3.6 m/s)
Visibility: 4 miles ( 7 km)
Ceiling: 1000 feet AGL
Clouds: few clouds at 500 feet AGL
scattered clouds at 800 feet AGL
broken clouds at 1000 feet AGL
Weather: -SHRA  (light rain showers)

METAR text: RJCH 210807Z 07008KT 030V090 7000 -SHRA FEW005 BKN008 BKN010 04/04 Q0995 RMK 1ST005 6ST008 7ST010 A2940
Conditions at: RJCH (HAKODATE AIRPORT, JP) observed 0807 UTC 21 March 2019
Temperature: 4.0°C (39°F)
Dewpoint: 4.0°C (39°F) [RH = 100%]
Pressure (altimeter): 29.38 inches Hg (995.0 mb)
Winds: from the ENE (70 degrees) at 9 MPH (8 knots; 4.1 m/s)
Visibility: 4 miles ( 7 km)
Ceiling: 800 feet AGL
Clouds: few clouds at 500 feet AGL
broken clouds at 800 feet AGL
broken clouds at 1000 feet AGL
Weather: -SHRA  (light rain showers)

METAR text: RJCH 210800Z 08008KT 5000 SHRA BR FEW005 BKN008 BKN010 04/04 Q0995
Conditions at: RJCH (HAKODATE AIRPORT, JP) observed 0800 UTC 21 March 2019
Temperature: 4.0°C (39°F)
Dewpoint: 4.0°C (39°F) [RH = 100%]
Pressure (altimeter): 29.38 inches Hg (995.0 mb)
Winds: from the E (80 degrees) at 9 MPH (8 knots; 4.1 m/s)
Visibility: 3 miles ( 5 km)
Ceiling: 800 feet AGL
Clouds: few clouds at 500 feet AGL
broken clouds at 800 feet AGL
broken clouds at 1000 feet AGL
Weather: SHRA BR  (rain showers, mist)

METAR text: RJCH 210747Z 06006KT 4900 -SHRA BR FEW005 BKN008 BKN010 04/04 Q0996 RMK 1ST005 5ST008 7ST010 A2941
Conditions at: RJCH (HAKODATE AIRPORT, JP) observed 0747 UTC 21 March 2019
Temperature: 4.0°C (39°F)
Dewpoint: 4.0°C (39°F) [RH = 100%]
Pressure (altimeter): 29.41 inches Hg (996.0 mb)
Winds: from the ENE (60 degrees) at 7 MPH (6 knots; 3.1 m/s)
Visibility: 3 miles ( 5 km)
Ceiling: 800 feet AGL
Clouds: few clouds at 500 feet AGL
broken clouds at 800 feet AGL
broken clouds at 1000 feet AGL
Weather: -SHRA BR  (light rain showers, mist)

METAR text: RJCH 210700Z 07007KT 9999 -SHRA FEW007 SCT012 BKN050 05/03 Q0997
Conditions at: RJCH (HAKODATE AIRPORT, JP) observed 0700 UTC 21 March 2019
Temperature: 5.0°C (41°F)
Dewpoint: 3.0°C (37°F) [RH = 87%]
Pressure (altimeter): 29.44 inches Hg (997.0 mb)
Winds: from the ENE (70 degrees) at 8 MPH (7 knots; 3.6 m/s)
Visibility: 6 or more miles (10+ km)
Ceiling: 5000 feet AGL
Clouds: few clouds at 700 feet AGL
scattered clouds at 1200 feet AGL
broken clouds at 5000 feet AGL
Weather: -SHRA  (light rain showers)

METAR text: RJCH 210600Z 07008KT 010V090 9999 FEW008 SCT015 BKN080 05/02 Q0998
Conditions at: RJCH (HAKODATE AIRPORT, JP) observed 0600 UTC 21 March 2019
Temperature: 5.0°C (41°F)
Dewpoint: 2.0°C (36°F) [RH = 81%]
Pressure (altimeter): 29.47 inches Hg (998.0 mb)
Winds: from the ENE (70 degrees) at 9 MPH (8 knots; 4.1 m/s)
Visibility: 6 or more miles (10+ km)
Ceiling: 8000 feet AGL
Clouds: few clouds at 800 feet AGL
scattered clouds at 1500 feet AGL
broken clouds at 8000 feet AGL
Weather: no significant weather observed at this time

METAR text: RJCH 210500Z 08008KT 050V120 9999 FEW007 BKN015 BKN080 07/02 Q1000
Conditions at: RJCH (HAKODATE AIRPORT, JP) observed 0500 UTC 21 March 2019
Temperature: 7.0°C (45°F)
Dewpoint: 2.0°C (36°F) [RH = 70%]
Pressure (altimeter): 29.53 inches Hg (1000.0 mb)
Winds: from the E (80 degrees) at 9 MPH (8 knots; 4.1 m/s)
Visibility: 6 or more miles (10+ km)
Ceiling: 1500 feet AGL
Clouds: few clouds at 700 feet AGL
broken clouds at 1500 feet AGL
broken clouds at 8000 feet AGL
Weather: no significant weather observed at this time

METAR text: RJCH 210400Z 08010KT 040V110 9999 FEW010 SCT030 BKN080 07/03 Q1002
Conditions at: RJCH (HAKODATE AIRPORT, JP) observed 0400 UTC 21 March 2019
Temperature: 7.0°C (45°F)
Dewpoint: 3.0°C (37°F) [RH = 76%]
Pressure (altimeter): 29.59 inches Hg (1002.0 mb)
Winds: from the E (80 degrees) at 12 MPH (10 knots; 5.1 m/s)
Visibility: 6 or more miles (10+ km)
Ceiling: 8000 feet AGL
Clouds: few clouds at 1000 feet AGL
scattered clouds at 3000 feet AGL
broken clouds at 8000 feet AGL
Weather: no significant weather observed at this time

METAR text: RJCH 210346Z 06009KT 020V100 9999 FEW010 SCT030 BKN080 07/03 Q1002 RMK 1ST010 3CU030 7AC080 A2961 P/FR
Conditions at: RJCH (HAKODATE AIRPORT, JP) observed 0346 UTC 21 March 2019
Temperature: 7.0°C (45°F)
Dewpoint: 3.0°C (37°F) [RH = 76%]
Pressure (altimeter): 29.59 inches Hg (1002.0 mb)
Winds: from the ENE (60 degrees) at 10 MPH (9 knots; 4.6 m/s)
Visibility: 6 or more miles (10+ km)
Ceiling: 8000 feet AGL
Clouds: few clouds at 1000 feet AGL
scattered clouds at 3000 feet AGL
broken clouds at 8000 feet AGL
Weather: no significant weather observed at this time

METAR text: RJCH 210300Z 12016KT 9999 FEW008 SCT030 BKN070 07/02 Q1004
Conditions at: RJCH (HAKODATE AIRPORT, JP) observed 0300 UTC 21 March 2019
Temperature: 7.0°C (45°F)
Dewpoint: 2.0°C (36°F) [RH = 70%]
Pressure (altimeter): 29.65 inches Hg (1004.0 mb)
Winds: from the ESE (120 degrees) at 18 MPH (16 knots; 8.2 m/s)
Visibility: 6 or more miles (10+ km)
Ceiling: 7000 feet AGL
Clouds: few clouds at 800 feet AGL
scattered clouds at 3000 feet AGL
broken clouds at 7000 feet AGL
Weather: no significant weather observed at this time

METAR text: RJCH 210233Z 12012KT 9999 FEW025 SCT040 BKN060 08/02 Q1004 RMK 1CU025 3CU040 7CU060 A2966
Conditions at: RJCH (HAKODATE AIRPORT, JP) observed 0233 UTC 21 March 2019
Temperature: 8.0°C (46°F)
Dewpoint: 2.0°C (36°F) [RH = 66%]
Pressure (altimeter): 29.65 inches Hg (1004.0 mb)
Winds: from the ESE (120 degrees) at 14 MPH (12 knots; 6.2 m/s)
Visibility: 6 or more miles (10+ km)
Ceiling: 6000 feet AGL
Clouds: few clouds at 2500 feet AGL
scattered clouds at 4000 feet AGL
broken clouds at 6000 feet AGL
Weather: no significant weather observed at this time

METAR text: RJCH 210200Z 06009KT 020V090 9999 FEW025 SCT060 BKN080 09/03 Q1005
Conditions at: RJCH (HAKODATE AIRPORT, JP) observed 0200 UTC 21 March 2019
Temperature: 9.0°C (48°F)
Dewpoint: 3.0°C (37°F) [RH = 66%]
Pressure (altimeter): 29.68 inches Hg (1005.0 mb)
Winds: from the ENE (60 degrees) at 10 MPH (9 knots; 4.6 m/s)
Visibility: 6 or more miles (10+ km)
Ceiling: 8000 feet AGL
Clouds: few clouds at 2500 feet AGL
scattered clouds at 6000 feet AGL
broken clouds at 8000 feet AGL
Weather: no significant weather observed at this time

METAR text: RJCH 210100Z 11009KT 9999 FEW020 SCT070 BKN100 11/04 Q1006
Conditions at: RJCH (HAKODATE AIRPORT, JP) observed 0100 UTC 21 March 2019
Temperature: 11.0°C (52°F)
Dewpoint: 4.0°C (39°F) [RH = 62%]
Pressure (altimeter): 29.70 inches Hg (1006.0 mb)
Winds: from the ESE (110 degrees) at 10 MPH (9 knots; 4.6 m/s)
Visibility: 6 or more miles (10+ km)
Ceiling: 10000 feet AGL
Clouds: few clouds at 2000 feet AGL
scattered clouds at 7000 feet AGL
broken clouds at 10000 feet AGL
Weather: no significant weather observed at this time

METAR text: RJCH 210000Z 36004KT 330V040 9999 FEW015 SCT070 BKN120 10/04 Q1007
Conditions at: RJCH (HAKODATE AIRPORT, JP) observed 0000 UTC 21 March 2019
Temperature: 10.0°C (50°F)
Dewpoint: 4.0°C (39°F) [RH = 66%]
Pressure (altimeter): 29.73 inches Hg (1007.0 mb)
Winds: from the N (360 degrees) at 5 MPH (4 knots; 2.1 m/s)
Visibility: 6 or more miles (10+ km)
Ceiling: 12000 feet AGL
Clouds: few clouds at 1500 feet AGL
scattered clouds at 7000 feet AGL
broken clouds at 12000 feet AGL
Weather: no significant weather observed at this time

Forecast for: RJCH (HAKODATE AIRPORT, JP)
Text: TAF RJCH 221113Z 2212/2318 30015KT 9999 FEW008 BKN025
Forecast period: 1200 UTC 22 March 2019 to 0900 UTC 23 March 2019
Forecast type: FROM: standard forecast or significant change
Winds: from the WNW (300 degrees) at 17 MPH (15 knots; 7.7 m/s)
Visibility: 6 or more miles 10+ km)
Ceiling: 2500 feet AGL
Clouds: few clouds at 800 feet AGL
broken clouds at 2500 feet AGL
Weather: no significant weather forecast for this period
Text: TEMPO 2218/2300 2000 -SHSN FEW005 BKN008
Forecast period: 1800 UTC 22 March 2019 to 0000 UTC 23 March 2019
Forecast type: TEMPORARY: The following changes expected for less than half the time period
Visibility: 1.24 miles (2.00 km)
Ceiling: 800 feet AGL
Clouds: few clouds at 500 feet AGL
broken clouds at 800 feet AGL
Weather: -SHSN  (light snow showers)
Text: TEMPO 2300/2303 28020G30KT
Forecast period: 0000 to 0300 UTC 23 March 2019
Forecast type: TEMPORARY: The following changes expected for less than half the time period
Winds: from the W (280 degrees) at 23 MPH (20 knots; 10.3 m/s)
gusting to 34 MPH (30 knots; 15.4 m/s)
Visibility: missing
Ceiling: unknown
Clouds: missing
Weather: no significant weather forecast for this period
Text: TEMPO 2303/2309 28020G30KT 2000 -SHSN FEW005 BKN008
Forecast period: 0300 to 0900 UTC 23 March 2019
Forecast type: TEMPORARY: The following changes expected for less than half the time period
Winds: from the W (280 degrees) at 23 MPH (20 knots; 10.3 m/s)
gusting to 34 MPH (30 knots; 15.4 m/s)
Visibility: 1.24 miles (2.00 km)
Ceiling: 800 feet AGL
Clouds: few clouds at 500 feet AGL
broken clouds at 800 feet AGL
Weather: -SHSN  (light snow showers)
Text: BECMG 2309/2312 30005KT
Forecast period: 0900 to 1800 UTC 23 March 2019
Forecast type: BECOMING: Conditions expected to become as follows by 1200 UTC 23 March 2019
Winds: from the WNW (300 degrees) at 6 MPH (5 knots; 2.6 m/s)
Visibility: 6 or more miles 10+ km)
Ceiling: 2500 feet AGL
Clouds: few clouds at 800 feet AGL
broken clouds at 2500 feet AGL
Weather: no significant weather forecast for this period